createdAt,value
2017-06-10T00:00:04.037Z,935.61
2017-06-10T00:00:32.707Z,935.56
2017-06-10T00:01:01.209Z,935.6
2017-06-10T00:01:29.928Z,935.66
2017-06-10T00:01:58.485Z,935.66
2017-06-10T00:02:27.101Z,935.65
2017-06-10T00:02:55.607Z,935.67
2017-06-10T00:03:24.196Z,935.68
2017-06-10T00:03:52.727Z,935.67
2017-06-10T00:04:21.335Z,935.67
2017-06-10T00:04:49.938Z,935.67
2017-06-10T00:05:18.532Z,935.69
2017-06-10T00:05:47.035Z,935.66
2017-06-10T00:06:15.650Z,935.68
2017-06-10T00:06:44.252Z,935.7
2017-06-10T00:07:12.860Z,935.68
2017-06-10T00:07:41.458Z,935.72
2017-06-10T00:08:12.327Z,935.66
2017-06-10T00:08:40.939Z,935.69
2017-06-10T00:09:09.562Z,935.67
2017-06-10T00:09:38.048Z,935.71
2017-06-10T00:10:06.504Z,935.7
2017-06-10T00:10:34.940Z,935.71
2017-06-10T00:11:03.540Z,935.78
2017-06-10T00:11:32.095Z,935.78
2017-06-10T00:12:00.629Z,935.81
2017-06-10T00:12:29.229Z,935.83
2017-06-10T00:12:57.857Z,935.82
2017-06-10T00:13:26.360Z,935.83
2017-06-10T00:13:54.886Z,935.79
2017-06-10T00:14:23.498Z,935.81
2017-06-10T00:14:52.127Z,935.77
2017-06-10T00:15:20.602Z,935.84
2017-06-10T00:15:49.237Z,935.82
2017-06-10T00:16:17.756Z,935.78
2017-06-10T00:16:46.377Z,935.78
2017-06-10T00:17:14.782Z,935.77
2017-06-10T00:17:43.405Z,935.8
2017-06-10T00:18:11.937Z,935.79
2017-06-10T00:18:40.570Z,935.82
2017-06-10T00:19:09.199Z,935.81
2017-06-10T00:19:37.814Z,935.84
2017-06-10T00:20:06.367Z,935.88
2017-06-10T00:20:34.772Z,935.88
2017-06-10T00:21:03.379Z,935.81
2017-06-10T00:21:31.901Z,935.79
2017-06-10T00:22:00.526Z,935.82
2017-06-10T00:22:29.137Z,935.8
2017-06-10T00:22:57.645Z,935.79
2017-06-10T00:23:26.175Z,935.81
2017-06-10T00:23:54.805Z,935.78
2017-06-10T00:24:23.409Z,935.79
2017-06-10T00:24:51.952Z,935.71
2017-06-10T00:25:20.373Z,935.64
2017-06-10T00:25:48.963Z,935.63
2017-06-10T00:26:17.790Z,935.64
2017-06-10T00:26:46.302Z,935.69
2017-06-10T00:27:14.926Z,935.64
2017-06-10T00:27:43.529Z,935.67
2017-06-10T00:28:12.191Z,935.67
2017-06-10T00:28:40.797Z,935.69
2017-06-10T00:29:09.443Z,935.67
2017-06-10T00:29:37.963Z,935.7
2017-06-10T00:30:06.586Z,935.64
2017-06-10T00:30:35.092Z,935.64
2017-06-10T00:31:03.696Z,935.63
2017-06-10T00:31:32.286Z,935.76
2017-06-10T00:32:00.826Z,935.79
2017-06-10T00:32:29.337Z,935.82
2017-06-10T00:32:57.872Z,935.92
2017-06-10T00:33:26.497Z,935.86
2017-06-10T00:33:55.122Z,935.9
2017-06-10T00:34:23.738Z,935.93
2017-06-10T00:34:52.209Z,935.89
2017-06-10T00:35:20.650Z,935.97
2017-06-10T00:35:49.203Z,936
2017-06-10T00:36:17.816Z,936.06
2017-06-10T00:36:46.452Z,936.14
2017-06-10T00:37:14.955Z,936.26
2017-06-10T00:37:43.594Z,936.3
2017-06-10T00:38:12.203Z,936.32
2017-06-10T00:38:40.827Z,936.26
2017-06-10T00:39:09.441Z,936.24
2017-06-10T00:39:37.935Z,936.17
2017-06-10T00:40:06.596Z,936.12
2017-06-10T00:40:35.031Z,936.15
2017-06-10T00:41:03.688Z,936.13
2017-06-10T00:41:32.226Z,936.1
2017-06-10T00:42:00.829Z,936.12
2017-06-10T00:42:29.437Z,936.11
2017-06-10T00:42:58.038Z,936.12
2017-06-10T00:43:26.640Z,936.1
2017-06-10T00:43:55.231Z,936.09
2017-06-10T00:44:23.773Z,936.05
2017-06-10T00:44:52.396Z,936.02
2017-06-10T00:45:21.002Z,935.88
2017-06-10T00:45:49.632Z,935.89
2017-06-10T00:46:18.169Z,935.76
2017-06-10T00:46:46.711Z,935.78
2017-06-10T00:47:15.229Z,935.75
2017-06-10T00:47:43.867Z,935.72
2017-06-10T00:48:12.487Z,935.71
2017-06-10T00:48:41.113Z,935.68
2017-06-10T00:49:09.753Z,935.63
2017-06-10T00:49:38.267Z,935.57
2017-06-10T00:50:06.878Z,935.49
2017-06-10T00:50:35.392Z,935.47
2017-06-10T00:51:03.992Z,935.43
2017-06-10T00:51:32.632Z,935.4
2017-06-10T00:52:01.255Z,935.42
2017-06-10T00:52:29.910Z,935.38
2017-06-10T00:52:58.505Z,935.42
2017-06-10T00:53:27.094Z,935.46
2017-06-10T00:53:55.541Z,935.51
2017-06-10T00:54:24.080Z,935.5
2017-06-10T00:54:52.630Z,935.52
2017-06-10T00:55:21.135Z,935.54
2017-06-10T00:55:49.742Z,935.59
2017-06-10T00:56:18.372Z,935.6
2017-06-10T00:56:46.994Z,935.59
2017-06-10T00:57:15.599Z,935.63
2017-06-10T00:57:44.199Z,935.61
2017-06-10T00:58:12.724Z,935.62
2017-06-10T00:58:41.349Z,935.67
2017-06-10T00:59:09.949Z,935.7
2017-06-10T00:59:38.555Z,935.77
2017-06-10T01:00:07.179Z,935.8
2017-06-10T01:00:35.680Z,935.79
2017-06-10T01:01:04.261Z,935.79
2017-06-10T01:01:32.883Z,935.83
2017-06-10T01:02:01.497Z,935.82
2017-06-10T01:02:30.100Z,935.84
2017-06-10T01:02:58.707Z,935.9
2017-06-10T01:03:27.320Z,935.95
2017-06-10T01:03:55.943Z,935.95
2017-06-10T01:04:24.417Z,936.02
2017-06-10T01:04:53.050Z,936.09
2017-06-10T01:05:21.592Z,936.11
2017-06-10T01:05:50.207Z,936.14
2017-06-10T01:06:18.859Z,936.21
2017-06-10T01:06:47.380Z,936.21
2017-06-10T01:07:15.978Z,936.22
2017-06-10T01:07:44.615Z,936.26
2017-06-10T01:08:13.199Z,936.21
2017-06-10T01:08:41.755Z,936.19
2017-06-10T01:09:10.209Z,936.18
2017-06-10T01:09:38.795Z,936.14
2017-06-10T01:10:07.398Z,936.17
2017-06-10T01:10:36.025Z,936.13
2017-06-10T01:11:04.556Z,936.16
2017-06-10T01:11:33.176Z,936.1
2017-06-10T01:12:01.810Z,936.11
2017-06-10T01:12:30.318Z,936.11
2017-06-10T01:12:58.930Z,936.14
2017-06-10T01:13:27.532Z,936.17
2017-06-10T01:13:56.168Z,936.17
2017-06-10T01:14:24.759Z,936.23
2017-06-10T01:14:53.272Z,936.31
2017-06-10T01:15:21.905Z,936.31
2017-06-10T01:15:50.527Z,936.31
2017-06-10T01:16:19.047Z,936.31
2017-06-10T01:16:47.531Z,936.28
2017-06-10T01:17:16.144Z,936.24
2017-06-10T01:17:44.747Z,936.19
2017-06-10T01:18:13.265Z,936.17
2017-06-10T01:18:41.867Z,936.15
2017-06-10T01:19:10.471Z,936.07
2017-06-10T01:19:39.093Z,936.04
2017-06-10T01:20:07.610Z,935.98
2017-06-10T01:20:36.221Z,935.97
2017-06-10T01:21:04.853Z,935.95
2017-06-10T01:21:33.457Z,935.91
2017-06-10T01:22:01.939Z,935.88
2017-06-10T01:22:30.577Z,935.87
2017-06-10T01:22:59.070Z,935.85
2017-06-10T01:23:27.714Z,935.83
2017-06-10T01:23:56.416Z,935.93
2017-06-10T01:24:24.953Z,935.91
2017-06-10T01:24:53.537Z,935.97
2017-06-10T01:25:22.139Z,936.01
2017-06-10T01:25:50.746Z,936.05
2017-06-10T01:26:19.274Z,936.11
2017-06-10T01:26:47.835Z,936.11
2017-06-10T01:27:16.472Z,936.08
2017-06-10T01:27:45.121Z,936.16
2017-06-10T01:28:13.738Z,936.13
2017-06-10T01:28:42.252Z,936.17
2017-06-10T01:29:10.680Z,936.15
2017-06-10T01:29:39.317Z,936.2
2017-06-10T01:30:07.941Z,936.22
2017-06-10T01:30:36.437Z,936.22
2017-06-10T01:31:05.045Z,936.21
2017-06-10T01:31:33.685Z,936.21
2017-06-10T01:32:02.305Z,936.24
2017-06-10T01:32:30.883Z,936.23
2017-06-10T01:32:59.329Z,936.22
2017-06-10T01:33:27.748Z,936.2
2017-06-10T01:33:56.372Z,936.2
2017-06-10T01:34:24.919Z,936.23
2017-06-10T01:34:53.550Z,936.27
2017-06-10T01:35:22.158Z,936.26
2017-06-10T01:35:50.736Z,936.27
2017-06-10T01:36:19.338Z,936.28
2017-06-10T01:36:47.953Z,936.31
2017-06-10T01:37:16.697Z,936.3
2017-06-10T01:37:45.268Z,936.31
2017-06-10T01:38:13.730Z,936.38
2017-06-10T01:38:42.259Z,936.36
2017-06-10T01:39:10.862Z,936.38
2017-06-10T01:39:39.409Z,936.39
2017-06-10T01:40:08.015Z,936.39
2017-06-10T01:40:36.523Z,936.43
2017-06-10T01:41:05.137Z,936.45
2017-06-10T01:41:33.728Z,936.46
2017-06-10T01:42:02.325Z,936.44
2017-06-10T01:42:31.265Z,936.45
2017-06-10T01:42:59.800Z,936.46
2017-06-10T01:43:28.331Z,936.41
2017-06-10T01:43:56.914Z,936.37
2017-06-10T01:44:25.536Z,936.32
2017-06-10T01:44:53.851Z,936.25
2017-06-10T01:45:22.444Z,936.29
2017-06-10T01:45:50.901Z,936.23
2017-06-10T01:46:19.522Z,936.26
2017-06-10T01:46:48.059Z,936.22
2017-06-10T01:47:17.467Z,936.19
2017-06-10T01:47:46.063Z,936.17
2017-06-10T01:48:14.670Z,936.12
2017-06-10T01:48:43.278Z,936.06
2017-06-10T01:49:11.778Z,935.98
2017-06-10T01:49:40.377Z,936
2017-06-10T01:50:08.884Z,935.97
2017-06-10T01:50:37.490Z,936.01
2017-06-10T01:51:06.013Z,936.08
2017-06-10T01:51:34.535Z,936.14
2017-06-10T01:52:03.120Z,936.21
2017-06-10T01:52:31.683Z,936.2
2017-06-10T01:53:00.266Z,936.25
2017-06-10T01:53:28.798Z,936.28
2017-06-10T01:53:57.388Z,936.28
2017-06-10T01:54:26.032Z,936.32
2017-06-10T01:54:54.630Z,936.29
2017-06-10T01:55:23.265Z,936.37
2017-06-10T01:55:51.777Z,936.4
2017-06-10T01:56:20.447Z,936.44
2017-06-10T01:56:48.962Z,936.46
2017-06-10T01:57:17.512Z,936.52
2017-06-10T01:57:46.069Z,936.47
2017-06-10T01:58:14.690Z,936.48
2017-06-10T01:58:43.141Z,936.44
2017-06-10T01:59:11.720Z,936.44
2017-06-10T01:59:40.336Z,936.49
2017-06-10T02:00:08.884Z,936.44
2017-06-10T02:00:37.424Z,936.41
2017-06-10T02:01:05.922Z,936.4
2017-06-10T02:01:34.560Z,936.39
2017-06-10T02:02:03.069Z,936.41
2017-06-10T02:02:31.741Z,936.41
2017-06-10T02:03:00.236Z,936.42
2017-06-10T02:03:28.860Z,936.37
2017-06-10T02:03:57.475Z,936.38
2017-06-10T02:04:26.087Z,936.33
2017-06-10T02:04:54.594Z,936.35
2017-06-10T02:05:23.191Z,936.32
2017-06-10T02:05:51.711Z,936.28
2017-06-10T02:06:20.229Z,936.25
2017-06-10T02:06:48.831Z,936.21
2017-06-10T02:07:17.407Z,936.23
2017-06-10T02:07:45.923Z,936.23
2017-06-10T02:08:14.550Z,936.17
2017-06-10T02:08:43.089Z,936.17
2017-06-10T02:09:11.686Z,936.17
2017-06-10T02:09:40.307Z,936.11
2017-06-10T02:10:08.838Z,936.13
2017-06-10T02:10:37.338Z,936.07
2017-06-10T02:11:05.941Z,936.06
2017-06-10T02:11:34.537Z,936.06
2017-06-10T02:12:03.140Z,936.05
2017-06-10T02:12:31.635Z,936.04
2017-06-10T02:13:00.252Z,936.05
2017-06-10T02:13:28.870Z,936.04
2017-06-10T02:13:57.470Z,936.04
2017-06-10T02:14:26.083Z,936.03
2017-06-10T02:14:54.499Z,936.07
2017-06-10T02:15:23.025Z,936.01
2017-06-10T02:15:51.564Z,935.98
2017-06-10T02:16:20.186Z,935.95
2017-06-10T02:16:48.755Z,935.92
2017-06-10T02:17:17.342Z,935.91
2017-06-10T02:17:45.954Z,935.94
2017-06-10T02:18:14.569Z,935.96
2017-06-10T02:18:43.172Z,936.01
2017-06-10T02:19:11.594Z,936.04
2017-06-10T02:19:40.245Z,936.08
2017-06-10T02:20:08.863Z,936.08
2017-06-10T02:20:37.462Z,936.12
2017-06-10T02:21:05.987Z,936.15
2017-06-10T02:21:34.582Z,936.18
2017-06-10T02:22:03.083Z,936.18
2017-06-10T02:22:31.697Z,936.19
2017-06-10T02:23:00.312Z,936.27
2017-06-10T02:23:30.847Z,936.28
2017-06-10T02:24:00.470Z,936.31
2017-06-10T02:24:29.075Z,936.31
2017-06-10T02:25:28.213Z,936.34
2017-06-10T02:25:56.611Z,936.32
2017-06-10T02:26:25.106Z,936.3
2017-06-10T02:26:54.916Z,936.31
2017-06-10T02:27:23.537Z,936.38
2017-06-10T02:27:52.020Z,936.37
2017-06-10T02:28:20.538Z,936.37
2017-06-10T02:28:49.036Z,936.4
2017-06-10T02:29:17.632Z,936.42
2017-06-10T02:29:46.165Z,936.39
2017-06-10T02:30:14.794Z,936.38
2017-06-10T02:30:43.237Z,936.35
2017-06-10T02:31:11.860Z,936.32
2017-06-10T02:31:40.352Z,936.33
2017-06-10T02:32:08.959Z,936.3
2017-06-10T02:32:37.484Z,936.35
2017-06-10T02:33:05.980Z,936.37
2017-06-10T02:33:34.606Z,936.39
2017-06-10T02:34:03.183Z,936.36
2017-06-10T02:34:31.695Z,936.32
2017-06-10T02:35:00.236Z,936.26
2017-06-10T02:35:28.833Z,936.25
2017-06-10T02:35:57.460Z,936.25
2017-06-10T02:36:25.959Z,936.19
2017-06-10T02:36:54.442Z,936.18
2017-06-10T02:37:23.073Z,936.13
2017-06-10T02:37:51.690Z,936.08
2017-06-10T02:38:20.283Z,936.09
2017-06-10T02:38:48.790Z,936.07
2017-06-10T02:39:17.327Z,936.02
2017-06-10T02:39:45.825Z,936.02
2017-06-10T02:40:14.338Z,935.98
2017-06-10T02:40:57.359Z,935.98
2017-06-10T02:41:27.776Z,936.01
2017-06-10T02:41:56.305Z,935.96
2017-06-10T02:42:24.932Z,935.9
2017-06-10T02:42:53.535Z,935.88
2017-06-10T02:43:22.148Z,935.94
2017-06-10T02:43:50.667Z,935.91
2017-06-10T02:44:19.188Z,935.91
2017-06-10T02:44:47.780Z,935.91
2017-06-10T02:45:16.405Z,935.91
2017-06-10T02:45:45.053Z,935.92
2017-06-10T02:46:13.453Z,935.95
2017-06-10T02:46:42.070Z,935.9
2017-06-10T02:47:10.671Z,935.97
2017-06-10T02:47:39.277Z,935.94
2017-06-10T02:48:07.805Z,935.93
2017-06-10T02:48:36.324Z,935.91
2017-06-10T02:49:04.874Z,935.87
2017-06-10T02:49:33.478Z,935.85
2017-06-10T02:50:01.905Z,935.83
2017-06-10T02:50:30.411Z,935.87
2017-06-10T02:50:58.831Z,935.81
2017-06-10T02:51:27.429Z,935.81
2017-06-10T02:51:56.204Z,935.8
2017-06-10T02:52:24.736Z,935.79
2017-06-10T02:52:53.161Z,935.78
2017-06-10T02:53:21.918Z,935.76
2017-06-10T02:53:50.553Z,935.74
2017-06-10T02:54:19.177Z,935.72
2017-06-10T02:54:47.792Z,935.72
2017-06-10T02:55:16.409Z,935.73
2017-06-10T02:55:45.022Z,935.68
2017-06-10T02:56:13.538Z,935.71
2017-06-10T02:56:42.039Z,935.68
2017-06-10T02:57:10.662Z,935.67
2017-06-10T02:57:39.216Z,935.65
2017-06-10T02:58:07.846Z,935.64
2017-06-10T02:58:36.265Z,935.58
2017-06-10T02:59:04.784Z,935.6
2017-06-10T02:59:33.294Z,935.62
2017-06-10T03:00:01.897Z,935.61
2017-06-10T03:00:30.413Z,935.59
2017-06-10T03:00:58.995Z,935.61
2017-06-10T03:01:27.531Z,935.66
2017-06-10T03:01:56.138Z,935.7
2017-06-10T03:02:24.750Z,935.73
2017-06-10T03:02:53.206Z,935.77
2017-06-10T03:03:21.824Z,935.8
2017-06-10T03:03:50.457Z,935.79
2017-06-10T03:04:19.076Z,935.85
2017-06-10T03:04:47.694Z,935.88
2017-06-10T03:05:16.286Z,935.91
2017-06-10T03:05:44.914Z,935.94
2017-06-10T03:06:13.531Z,935.94
2017-06-10T03:06:42.045Z,935.98
2017-06-10T03:07:10.630Z,935.99
2017-06-10T03:07:39.239Z,936.03
2017-06-10T03:08:07.735Z,936.05
2017-06-10T03:08:36.348Z,936.09
2017-06-10T03:09:04.958Z,936.08
2017-06-10T03:09:33.570Z,936.1
2017-06-10T03:10:02.177Z,936.09
2017-06-10T03:10:30.684Z,936.13
2017-06-10T03:10:59.221Z,936.14
2017-06-10T03:11:27.851Z,936.15
2017-06-10T03:11:56.464Z,936.15
2017-06-10T03:12:24.967Z,936.12
2017-06-10T03:12:53.588Z,936.13
2017-06-10T03:13:22.025Z,936.11
2017-06-10T03:13:50.635Z,936.11
2017-06-10T03:14:19.132Z,936.07
2017-06-10T03:14:47.741Z,936.08
2017-06-10T03:15:16.357Z,936.03
2017-06-10T03:15:44.978Z,936
2017-06-10T03:16:13.513Z,936.02
2017-06-10T03:16:42.040Z,936.01
2017-06-10T03:17:10.914Z,935.98
2017-06-10T03:17:39.523Z,935.95
2017-06-10T03:18:08.152Z,935.94
2017-06-10T03:18:36.751Z,935.94
2017-06-10T03:19:05.367Z,935.91
2017-06-10T03:19:33.960Z,935.9
2017-06-10T03:20:02.540Z,935.95
2017-06-10T03:20:31.146Z,935.96
2017-06-10T03:20:59.550Z,935.96
2017-06-10T03:21:28.099Z,935.99
2017-06-10T03:21:56.638Z,936
2017-06-10T03:22:25.267Z,936.01
2017-06-10T03:22:53.782Z,936.06
2017-06-10T03:23:22.327Z,936.03
2017-06-10T03:23:50.964Z,936.06
2017-06-10T03:24:19.347Z,936.03
2017-06-10T03:24:47.976Z,936.03
2017-06-10T03:25:16.583Z,936.03
2017-06-10T03:25:45.121Z,936.03
2017-06-10T03:26:13.704Z,936.06
2017-06-10T03:26:42.300Z,936.09
2017-06-10T03:27:10.905Z,936.09
2017-06-10T03:27:39.538Z,936.1
2017-06-10T03:28:08.129Z,936.09
2017-06-10T03:28:36.548Z,936.11
2017-06-10T03:29:05.173Z,936.12
2017-06-10T03:29:33.804Z,936.08
2017-06-10T03:30:02.430Z,936.09
2017-06-10T03:30:30.874Z,936.11
2017-06-10T03:30:59.381Z,936.09
2017-06-10T03:31:27.977Z,936.1
2017-06-10T03:31:56.610Z,936.14
2017-06-10T03:32:25.210Z,936.14
2017-06-10T03:32:53.703Z,936.11
2017-06-10T03:33:22.327Z,936.17
2017-06-10T03:33:50.843Z,936.16
2017-06-10T03:34:19.452Z,936.18
2017-06-10T03:34:48.032Z,936.19
2017-06-10T03:35:16.547Z,936.21
2017-06-10T03:35:45.164Z,936.13
2017-06-10T03:36:13.694Z,936.1
2017-06-10T03:36:42.303Z,936.08
2017-06-10T03:37:10.913Z,936.11
2017-06-10T03:37:39.446Z,936.13
2017-06-10T03:38:08.042Z,936.18
2017-06-10T03:38:36.650Z,936.16
2017-06-10T03:39:05.030Z,936.08
2017-06-10T03:39:33.641Z,936.06
2017-06-10T03:40:02.275Z,936.03
2017-06-10T03:40:30.775Z,935.99
2017-06-10T03:40:59.301Z,935.97
2017-06-10T03:41:27.886Z,935.98
2017-06-10T03:41:56.495Z,936.02
2017-06-10T03:42:24.997Z,935.99
2017-06-10T03:42:53.501Z,936.04
2017-06-10T03:43:22.042Z,935.97
2017-06-10T03:43:50.619Z,935.97
2017-06-10T03:44:19.217Z,935.91
2017-06-10T03:44:47.797Z,935.89
2017-06-10T03:45:16.332Z,935.85
2017-06-10T03:45:44.834Z,935.86
2017-06-10T03:46:13.457Z,935.85
2017-06-10T03:46:42.060Z,935.82
2017-06-10T03:47:10.696Z,935.85
2017-06-10T03:47:39.316Z,935.85
2017-06-10T03:48:07.948Z,935.85
2017-06-10T03:48:36.532Z,935.81
2017-06-10T03:49:05.021Z,935.83
2017-06-10T03:49:33.426Z,935.83
2017-06-10T03:50:02.036Z,935.81
2017-06-10T03:50:30.635Z,935.79
2017-06-10T03:50:59.156Z,935.77
2017-06-10T03:51:27.680Z,935.72
2017-06-10T03:51:56.117Z,935.75
2017-06-10T03:52:24.736Z,935.77
2017-06-10T03:52:53.276Z,935.76
2017-06-10T03:53:21.875Z,935.78
2017-06-10T03:53:50.377Z,935.76
2017-06-10T03:54:18.919Z,935.77
2017-06-10T03:54:47.340Z,935.79
2017-06-10T03:55:15.960Z,935.84
2017-06-10T03:55:44.400Z,935.85
2017-06-10T03:56:12.905Z,935.88
2017-06-10T03:56:41.524Z,935.92
2017-06-10T03:57:10.142Z,935.93
2017-06-10T03:57:38.651Z,935.92
2017-06-10T03:58:07.283Z,935.96
2017-06-10T03:58:35.817Z,935.93
2017-06-10T03:59:04.404Z,935.97
2017-06-10T03:59:32.895Z,935.97
2017-06-10T04:00:01.518Z,935.95
2017-06-10T04:00:30.113Z,935.96
2017-06-10T04:00:58.734Z,935.93
2017-06-10T04:01:27.249Z,935.92
2017-06-10T04:01:55.870Z,935.93
2017-06-10T04:02:24.519Z,935.96
2017-06-10T04:02:53.019Z,935.94
2017-06-10T04:03:21.629Z,935.9
2017-06-10T04:03:50.236Z,935.95
2017-06-10T04:04:18.768Z,935.95
2017-06-10T04:04:47.290Z,935.93
2017-06-10T04:05:15.905Z,935.95
2017-06-10T04:05:44.316Z,935.94
2017-06-10T04:06:12.937Z,935.92
2017-06-10T04:06:41.566Z,935.94
2017-06-10T04:07:10.191Z,935.93
2017-06-10T04:07:38.736Z,935.92
2017-06-10T04:08:07.346Z,935.89
2017-06-10T04:08:35.861Z,935.95
2017-06-10T04:09:04.362Z,935.95
2017-06-10T04:09:32.993Z,935.95
2017-06-10T04:10:01.604Z,935.98
2017-06-10T04:10:29.945Z,936.02
2017-06-10T04:10:58.468Z,935.98
2017-06-10T04:11:27.031Z,936.03
2017-06-10T04:11:55.540Z,936
2017-06-10T04:12:24.131Z,935.98
2017-06-10T04:12:52.765Z,936.01
2017-06-10T04:13:21.373Z,935.96
2017-06-10T04:13:49.993Z,935.95
2017-06-10T04:14:18.509Z,935.91
2017-06-10T04:14:47.104Z,935.89
2017-06-10T04:15:15.715Z,935.89
2017-06-10T04:15:44.329Z,935.87
2017-06-10T04:16:12.875Z,935.88
2017-06-10T04:16:41.479Z,935.87
2017-06-10T04:17:10.109Z,935.89
2017-06-10T04:17:38.719Z,935.87
2017-06-10T04:18:07.339Z,935.9
2017-06-10T04:18:35.849Z,935.91
2017-06-10T04:19:04.467Z,935.9
2017-06-10T04:19:33.035Z,935.89
2017-06-10T04:20:01.638Z,935.9
2017-06-10T04:20:30.144Z,935.89
2017-06-10T04:20:58.743Z,935.85
2017-06-10T04:21:27.363Z,935.87
2017-06-10T04:21:55.983Z,935.86
2017-06-10T04:22:24.611Z,935.84
2017-06-10T04:22:53.124Z,935.88
2017-06-10T04:23:21.731Z,935.84
2017-06-10T04:23:50.344Z,935.85
2017-06-10T04:24:18.859Z,935.86
2017-06-10T04:24:47.382Z,935.82
2017-06-10T04:25:15.744Z,935.84
2017-06-10T04:25:44.356Z,935.82
2017-06-10T04:26:12.858Z,935.81
2017-06-10T04:26:41.477Z,935.78
2017-06-10T04:27:10.002Z,935.78
2017-06-10T04:27:38.528Z,935.77
2017-06-10T04:28:07.116Z,935.78
2017-06-10T04:28:35.721Z,935.75
2017-06-10T04:29:04.326Z,935.73
2017-06-10T04:29:32.917Z,935.76
2017-06-10T04:30:01.518Z,935.74
2017-06-10T04:30:30.109Z,935.81
2017-06-10T04:30:58.736Z,935.7
2017-06-10T04:31:27.249Z,935.75
2017-06-10T04:31:55.765Z,935.73
2017-06-10T04:32:24.365Z,935.72
2017-06-10T04:32:52.974Z,935.73
2017-06-10T04:33:21.470Z,935.74
2017-06-10T04:33:49.996Z,935.73
2017-06-10T04:34:18.623Z,935.75
2017-06-10T04:34:47.098Z,935.79
2017-06-10T04:35:15.701Z,935.78
2017-06-10T04:35:44.319Z,935.79
2017-06-10T04:36:12.924Z,935.77
2017-06-10T04:36:41.427Z,935.79
2017-06-10T04:37:10.034Z,935.79
2017-06-10T04:37:38.635Z,935.78
2017-06-10T04:38:07.273Z,935.83
2017-06-10T04:38:35.803Z,935.84
2017-06-10T04:39:04.427Z,935.78
2017-06-10T04:39:32.999Z,935.82
2017-06-10T04:40:01.628Z,935.78
2017-06-10T04:40:30.223Z,935.78
2017-06-10T04:40:58.742Z,935.78
2017-06-10T04:41:27.352Z,935.77
2017-06-10T04:41:55.987Z,935.8
2017-06-10T04:42:24.494Z,935.79
2017-06-10T04:42:53.031Z,935.76
2017-06-10T04:43:21.558Z,935.75
2017-06-10T04:43:50.156Z,935.72
2017-06-10T04:44:18.746Z,935.7
2017-06-10T04:44:47.323Z,935.74
2017-06-10T04:45:15.844Z,935.73
2017-06-10T04:45:44.448Z,935.74
2017-06-10T04:46:12.951Z,935.73
2017-06-10T04:46:41.566Z,935.79
2017-06-10T04:47:10.185Z,935.79
2017-06-10T04:47:38.701Z,935.8
2017-06-10T04:48:07.217Z,935.79
2017-06-10T04:48:35.629Z,935.81
2017-06-10T04:49:04.100Z,935.76
2017-06-10T04:49:32.729Z,935.72
2017-06-10T04:50:01.316Z,935.73
2017-06-10T04:50:29.824Z,935.7
2017-06-10T04:50:58.342Z,935.67
2017-06-10T04:51:26.967Z,935.69
2017-06-10T04:51:55.527Z,935.67
2017-06-10T04:52:24.067Z,935.65
2017-06-10T04:52:52.489Z,935.69
2017-06-10T04:53:21.097Z,935.63
2017-06-10T04:53:49.704Z,935.64
2017-06-10T04:54:18.328Z,935.64
2017-06-10T04:54:46.641Z,935.62
2017-06-10T04:55:15.244Z,935.65
2017-06-10T04:55:43.784Z,935.65
2017-06-10T04:56:12.402Z,935.66
2017-06-10T04:56:40.825Z,935.68
2017-06-10T04:57:09.455Z,935.68
2017-06-10T04:57:38.065Z,935.7
2017-06-10T04:58:06.664Z,935.75
2017-06-10T04:58:35.218Z,935.71
2017-06-10T04:59:03.836Z,935.77
2017-06-10T04:59:32.431Z,935.8
2017-06-10T05:00:01.014Z,935.81
2017-06-10T05:00:29.553Z,935.81
2017-06-10T05:00:58.182Z,935.75
2017-06-10T05:01:26.714Z,935.76
2017-06-10T05:01:55.330Z,935.75
2017-06-10T05:02:23.927Z,935.7
2017-06-10T05:02:52.455Z,935.68
2017-06-10T05:03:20.971Z,935.65
2017-06-10T05:03:49.584Z,935.62
2017-06-10T05:04:18.174Z,935.65
2017-06-10T05:04:46.677Z,935.6
2017-06-10T05:05:15.271Z,935.63
2017-06-10T05:05:43.893Z,935.61
2017-06-10T05:06:12.508Z,935.65
2017-06-10T05:06:41.031Z,935.66
2017-06-10T05:07:09.540Z,935.69
2017-06-10T05:07:38.090Z,935.72
2017-06-10T05:08:06.729Z,935.78
2017-06-10T05:08:35.342Z,935.77
2017-06-10T05:09:03.968Z,935.74
2017-06-10T05:09:32.583Z,935.77
2017-06-10T05:10:01.016Z,935.74
2017-06-10T05:10:29.533Z,935.73
2017-06-10T05:10:58.046Z,935.67
2017-06-10T05:11:26.388Z,935.62
2017-06-10T05:11:54.911Z,935.59
2017-06-10T05:12:23.521Z,935.62
2017-06-10T05:12:52.118Z,935.52
2017-06-10T05:13:20.710Z,935.53
2017-06-10T05:13:49.302Z,935.54
2017-06-10T05:14:17.896Z,935.59
2017-06-10T05:14:46.525Z,935.67
2017-06-10T05:15:15.149Z,935.7
2017-06-10T05:15:43.676Z,935.75
2017-06-10T05:16:12.204Z,935.78
2017-06-10T05:16:40.809Z,935.74
2017-06-10T05:17:09.412Z,935.78
2017-06-10T05:17:38.004Z,935.74
2017-06-10T05:18:06.616Z,935.69
2017-06-10T05:18:35.136Z,935.72
2017-06-10T05:19:03.772Z,935.67
2017-06-10T05:19:32.378Z,935.67
2017-06-10T05:20:00.990Z,935.62
2017-06-10T05:20:29.574Z,935.63
2017-06-10T05:20:58.111Z,935.65
2017-06-10T05:21:26.629Z,935.6
2017-06-10T05:21:55.220Z,935.62
2017-06-10T05:22:23.727Z,935.67
2017-06-10T05:22:52.264Z,935.7
2017-06-10T05:23:20.789Z,935.67
2017-06-10T05:23:49.369Z,935.68
2017-06-10T05:24:17.985Z,935.62
2017-06-10T05:24:46.614Z,935.62
2017-06-10T05:25:15.221Z,935.59
2017-06-10T05:25:43.537Z,935.64
2017-06-10T05:26:12.154Z,935.66
2017-06-10T05:26:40.773Z,935.68
2017-06-10T05:27:09.369Z,935.7
2017-06-10T05:27:37.996Z,935.72
2017-06-10T05:28:06.633Z,935.77
2017-06-10T05:28:35.242Z,935.77
2017-06-10T05:29:03.845Z,935.77
2017-06-10T05:29:32.468Z,935.77
2017-06-10T05:30:01.073Z,935.76
2017-06-10T05:30:29.688Z,935.74
2017-06-10T05:30:58.309Z,935.76
2017-06-10T05:31:26.924Z,935.76
2017-06-10T05:31:55.503Z,935.76
2017-06-10T05:32:24.037Z,935.72
2017-06-10T05:32:52.649Z,935.75
2017-06-10T05:33:21.283Z,935.75
2017-06-10T05:33:49.807Z,935.75
2017-06-10T05:34:18.339Z,935.71
2017-06-10T05:34:46.865Z,935.7
2017-06-10T05:35:15.499Z,935.69
2017-06-10T05:35:44.012Z,935.71
2017-06-10T05:36:12.617Z,935.71
2017-06-10T05:36:41.040Z,935.71
2017-06-10T05:37:09.569Z,935.67
2017-06-10T05:37:38.178Z,935.64
2017-06-10T05:38:06.708Z,935.66
2017-06-10T05:38:35.311Z,935.65
2017-06-10T05:39:03.921Z,935.63
2017-06-10T05:39:32.448Z,935.64
2017-06-10T05:40:01.061Z,935.61
2017-06-10T05:40:29.612Z,935.62
2017-06-10T05:40:58.228Z,935.68
2017-06-10T05:41:26.717Z,935.67
2017-06-10T05:41:55.349Z,935.71
2017-06-10T05:42:23.869Z,935.68
2017-06-10T05:42:52.403Z,935.75
2017-06-10T05:43:21.023Z,935.69
2017-06-10T05:43:49.548Z,935.68
2017-06-10T05:44:18.148Z,935.67
2017-06-10T05:44:46.783Z,935.64
2017-06-10T05:45:15.421Z,935.63
2017-06-10T05:45:44.020Z,935.61
2017-06-10T05:46:12.630Z,935.66
2017-06-10T05:46:41.265Z,935.63
2017-06-10T05:47:09.871Z,935.58
2017-06-10T05:47:38.479Z,935.61
2017-06-10T05:48:07.060Z,935.62
2017-06-10T05:48:35.493Z,935.56
2017-06-10T05:49:04.084Z,935.57
2017-06-10T05:49:32.693Z,935.56
2017-06-10T05:50:01.304Z,935.57
2017-06-10T05:50:29.799Z,935.56
2017-06-10T05:50:58.583Z,935.58
2017-06-10T05:51:27.180Z,935.59
2017-06-10T05:51:55.797Z,935.57
2017-06-10T05:52:24.404Z,935.63
2017-06-10T05:52:52.999Z,935.63
2017-06-10T05:53:21.589Z,935.61
2017-06-10T05:53:50.022Z,935.62
2017-06-10T05:54:18.523Z,935.62
2017-06-10T05:54:47.139Z,935.6
2017-06-10T05:55:15.728Z,935.61
2017-06-10T05:55:44.311Z,935.57
2017-06-10T05:56:12.913Z,935.57
2017-06-10T05:56:41.430Z,935.51
2017-06-10T05:57:10.033Z,935.51
2017-06-10T05:57:38.648Z,935.55
2017-06-10T05:58:07.280Z,935.5